Time,TemperatureF,DewpointF,PressureIn,WindDirection,WindDirectionDegrees,WindSpeedMPH,WindSpeedGustMPH,Humidity,HourlyPrecipIn,Conditions,Clouds,dailyrainin,SoftwareType,DateUTC
2013-05-07 00:02:00,57.0,-99.9,29.99,ESE,122,3.0,4.0,-999,-99.99,,,-99.99,,2013-05-07 07:02:00,
2013-05-07 00:11:00,57.0,-99.9,29.99,ESE,114,4.0,6.0,-999,-99.99,,,-99.99,,2013-05-07 07:11:00,
2013-05-07 00:22:00,57.0,-99.9,29.99,ESE,119,4.0,5.0,-999,-99.99,,,-99.99,,2013-05-07 07:22:00,
2013-05-07 00:32:00,57.0,-99.9,29.99,ESE,115,4.0,5.0,-999,-99.99,,,-99.99,,2013-05-07 07:32:00,
2013-05-07 00:42:00,57.0,-99.9,29.99,SE,132,6.0,8.0,-999,-99.99,,,-99.99,,2013-05-07 07:42:00,
2013-05-07 00:53:00,57.0,-99.9,29.99,ESE,120,6.0,7.0,-999,-99.99,,,-99.99,,2013-05-07 07:53:00,
2013-05-07 01:02:00,57.0,-99.9,29.99,SE,135,5.0,6.0,-999,-99.99,,,-99.99,,2013-05-07 08:02:00,
2013-05-07 01:11:00,57.0,-99.9,29.99,SE,127,6.0,9.0,-999,-99.99,,,-99.99,,2013-05-07 08:11:00,
2013-05-07 01:22:00,57.0,-99.9,29.99,SE,134,6.0,9.0,-999,-99.99,,,-99.99,,2013-05-07 08:22:00,
2013-05-07 01:32:00,57.0,-99.9,29.98,SE,130,6.0,8.0,-999,-99.99,,,-99.99,,2013-05-07 08:32:00,
2013-05-07 01:42:00,57.0,-99.9,29.99,SE,126,7.0,9.0,-999,-99.99,,,-99.99,,2013-05-07 08:42:00,
2013-05-07 01:52:00,56.0,-99.9,29.99,SE,131,6.0,9.0,-999,-99.99,,,-99.99,,2013-05-07 08:52:00,
2013-05-07 02:02:00,56.0,-99.9,29.98,SE,128,4.0,7.0,-999,-99.99,,,-99.99,,2013-05-07 09:02:00,
2013-05-07 02:12:00,56.0,-99.9,29.98,SSE,160,2.0,5.0,-999,-99.99,,,-99.99,,2013-05-07 09:12:00,
2013-05-07 02:23:00,56.0,-99.9,29.99,SSE,164,2.0,4.0,-999,-99.99,,,-99.99,,2013-05-07 09:23:00,
2013-05-07 02:33:00,56.0,-99.9,29.99,SE,134,2.0,3.0,-999,-99.99,,,-99.99,,2013-05-07 09:33:00,
2013-05-07 02:43:00,56.0,-99.9,29.99,SE,126,1.0,4.0,-999,-99.99,,,-99.99,,2013-05-07 09:43:00,
2013-05-07 02:53:00,56.0,-99.9,29.98,SE,137,2.0,3.0,-999,-99.99,,,-99.99,,2013-05-07 09:53:00,
2013-05-07 03:03:00,56.0,-99.9,29.98,SSE,156,-999.0,1.0,-999,-99.99,,,-99.99,,2013-05-07 10:03:00,
2013-05-07 03:13:00,56.0,-99.9,29.99,SE,139,1.0,2.0,-999,-99.99,,,-99.99,,2013-05-07 10:13:00,
2013-05-07 03:23:00,56.0,-99.9,29.99,SSE,154,-999.0,1.0,-999,-99.99,,,-99.99,,2013-05-07 10:23:00,
2013-05-07 03:33:00,56.0,-99.9,29.99,North,-999,-999.0,-999.0,-999,-99.99,,,-99.99,,2013-05-07 10:33:00,
2013-05-07 03:42:00,56.0,-99.9,29.98,West,273,0.0,2.0,-999,-99.99,,,-99.99,,2013-05-07 10:42:00,
2013-05-07 03:52:00,56.0,-99.9,29.98,West,273,0.0,0.0,-999,-99.99,,,-99.99,,2013-05-07 10:52:00,
2013-05-07 04:03:00,55.0,-99.9,29.98,WSW,244,-999.0,1.0,-999,-99.99,,,-99.99,,2013-05-07 11:03:00,
2013-05-07 04:12:00,56.0,-99.9,29.99,North,-999,-999.0,-999.0,-999,-99.99,,,-99.99,,2013-05-07 11:12:00,
2013-05-07 04:22:00,56.0,-99.9,29.99,South,176,0.0,1.0,-999,-99.99,,,-99.99,,2013-05-07 11:22:00,
2013-05-07 04:32:00,56.0,-99.9,29.99,SSE,167,-999.0,1.0,-999,-99.99,,,-99.99,,2013-05-07 11:32:00,
2013-05-07 04:42:00,56.0,-99.9,29.99,North,-999,-999.0,-999.0,-999,-99.99,,,-99.99,,2013-05-07 11:42:00,
2013-05-07 04:52:00,56.0,-99.9,29.99,North,-999,-999.0,-999.0,-999,-99.99,,,-99.99,,2013-05-07 11:52:00,
2013-05-07 05:02:00,56.0,-99.9,29.99,West,271,1.0,1.0,-999,-99.99,,,-99.99,,2013-05-07 12:02:00,
2013-05-07 05:12:00,56.0,-99.9,29.99,West,262,1.0,1.0,-999,-99.99,,,-99.99,,2013-05-07 12:12:00,
2013-05-07 05:22:00,56.0,-99.9,30.00,West,262,-999.0,1.0,-999,-99.99,,,-99.99,,2013-05-07 12:22:00,
2013-05-07 05:32:00,56.0,-99.9,30.00,WNW,287,1.0,1.0,-999,-99.99,,,-99.99,,2013-05-07 12:32:00,
2013-05-07 05:42:00,56.0,-99.9,30.00,West,264,1.0,1.0,-999,-99.99,,,-99.99,,2013-05-07 12:42:00,
2013-05-07 05:52:00,56.0,-99.9,30.00,West,260,-999.0,1.0,-999,-99.99,,,-99.99,,2013-05-07 12:52:00,
2013-05-07 06:02:00,56.0,-99.9,30.00,West,261,-999.0,1.0,-999,-99.99,,,-99.99,,2013-05-07 13:02:00,
2013-05-07 06:11:00,56.0,-99.9,30.00,North,-999,-999.0,-999.0,-999,-99.99,,,-99.99,,2013-05-07 13:11:00,
2013-05-07 06:22:00,56.0,-99.9,30.00,South,178,1.0,1.0,-999,-99.99,,,-99.99,,2013-05-07 13:22:00,
2013-05-07 06:32:00,56.0,-99.9,30.00,NNE,25,1.0,2.0,-999,-99.99,,,-99.99,,2013-05-07 13:32:00,
2013-05-07 06:42:00,56.0,-99.9,30.00,NW,319,-999.0,1.0,-999,-99.99,,,-99.99,,2013-05-07 13:42:00,
2013-05-07 06:52:00,56.0,-99.9,30.00,North,-999,-999.0,-999.0,-999,-99.99,,,-99.99,,2013-05-07 13:52:00,
2013-05-07 07:02:00,56.0,-99.9,30.01,SW,235,-999.0,2.0,-999,-99.99,,,-99.99,,2013-05-07 14:02:00,
2013-05-07 07:11:00,56.0,-99.9,30.01,WNW,296,3.0,3.0,-999,-99.99,,,-99.99,,2013-05-07 14:11:00,
2013-05-07 07:22:00,56.0,-99.9,30.01,WNW,291,1.0,3.0,-999,-99.99,,,-99.99,,2013-05-07 14:22:00,
2013-05-07 07:32:00,56.0,-99.9,30.01,North,-999,-999.0,-999.0,-999,-99.99,,,-99.99,,2013-05-07 14:32:00,
2013-05-07 07:42:00,56.0,-99.9,30.01,SE,130,1.0,2.0,-999,-99.99,,,-99.99,,2013-05-07 14:42:00,
2013-05-07 07:52:00,56.0,-99.9,30.01,North,-999,-999.0,-999.0,-999,-99.99,,,-99.99,,2013-05-07 14:52:00,
2013-05-07 08:01:00,56.0,-99.9,30.02,North,1,1.0,1.0,-999,-99.99,,,-99.99,,2013-05-07 15:01:00,
2013-05-07 08:12:00,56.0,-99.9,30.02,WNW,289,1.0,1.0,-999,-99.99,,,-99.99,,2013-05-07 15:12:00,
2013-05-07 08:22:00,56.0,-99.9,30.02,West,270,1.0,2.0,-999,-99.99,,,-99.99,,2013-05-07 15:22:00,
2013-05-07 08:33:00,57.0,-99.9,30.03,NE,45,-999.0,0.0,-999,-99.99,,,-99.99,,2013-05-07 15:33:00,
2013-05-07 08:43:00,57.0,-99.9,30.03,North,-999,-999.0,-999.0,-999,-99.99,,,-99.99,,2013-05-07 15:43:00,
2013-05-07 08:53:00,56.0,-99.9,30.03,East,91,3.0,3.0,-999,-99.99,,,-99.99,,2013-05-07 15:53:00,
2013-05-07 09:03:00,57.0,-99.9,30.03,East,85,3.0,3.0,-999,-99.99,,,-99.99,,2013-05-07 16:03:00,
2013-05-07 09:12:00,56.0,-99.9,30.04,East,84,5.0,6.0,-999,-99.99,,,-99.99,,2013-05-07 16:12:00,
2013-05-07 09:22:00,57.0,-99.9,30.04,ENE,72,3.0,5.0,-999,-99.99,,,-99.99,,2013-05-07 16:22:00,
2013-05-07 09:32:00,57.0,-99.9,30.04,ENE,65,4.0,5.0,-999,-99.99,,,-99.99,,2013-05-07 16:32:00,
2013-05-07 09:42:00,57.0,-99.9,30.05,East,84,4.0,4.0,-999,-99.99,,,-99.99,,2013-05-07 16:42:00,
2013-05-07 09:52:00,58.0,-99.9,30.05,East,79,3.0,4.0,-999,-99.99,,,-99.99,,2013-05-07 16:52:00,
2013-05-07 10:01:00,58.0,-99.9,30.05,East,93,3.0,4.0,-999,-99.99,,,-99.99,,2013-05-07 17:01:00,
2013-05-07 10:12:00,58.0,-99.9,30.05,East,93,3.0,3.0,-999,-99.99,,,-99.99,,2013-05-07 17:12:00,
2013-05-07 10:21:00,58.0,-99.9,30.05,East,93,3.0,3.0,-999,-99.99,,,-99.99,,2013-05-07 17:21:00,
2013-05-07 10:32:00,58.0,-99.9,30.05,SE,127,4.0,7.0,-999,-99.99,,,-99.99,,2013-05-07 17:32:00,
2013-05-07 10:41:00,59.0,-99.9,30.05,SE,127,4.0,5.0,-999,-99.99,,,-99.99,,2013-05-07 17:41:00,
2013-05-07 10:53:00,59.0,-99.9,30.05,SE,138,5.0,7.0,-999,-99.99,,,-99.99,,2013-05-07 17:53:00,
2013-05-07 11:01:00,59.0,-99.9,30.05,SE,133,4.0,6.0,-999,-99.99,,,-99.99,,2013-05-07 18:01:00,
2013-05-07 11:11:00,59.0,-99.9,30.05,SE,139,4.0,6.0,-999,-99.99,,,-99.99,,2013-05-07 18:11:00,
2013-05-07 11:21:00,59.0,-99.9,30.05,SE,129,5.0,7.0,-999,-99.99,,,-99.99,,2013-05-07 18:21:00,
2013-05-07 11:32:00,59.0,-99.9,30.06,South,171,4.0,7.0,-999,-99.99,,,-99.99,,2013-05-07 18:32:00,
2013-05-07 11:42:00,59.0,-99.9,30.06,SE,134,4.0,6.0,-999,-99.99,,,-99.99,,2013-05-07 18:42:00,
2013-05-07 11:52:00,59.0,-99.9,30.06,SE,137,3.0,6.0,-999,-99.99,,,-99.99,,2013-05-07 18:52:00,
2013-05-07 12:02:00,58.0,-99.9,30.06,SSE,149,5.0,9.0,-999,-99.99,,,-99.99,,2013-05-07 19:02:00,
2013-05-07 12:11:00,58.0,-99.9,30.06,SE,133,5.0,8.0,-999,-99.99,,,-99.99,,2013-05-07 19:11:00,
2013-05-07 12:22:00,58.0,-99.9,30.06,SE,145,4.0,7.0,-999,-99.99,,,-99.99,,2013-05-07 19:22:00,
2013-05-07 12:32:00,58.0,-99.9,30.06,SE,136,2.0,6.0,-999,-99.99,,,-99.99,,2013-05-07 19:32:00,
2013-05-07 12:42:00,58.0,-99.9,30.06,SE,142,4.0,7.0,-999,-99.99,,,-99.99,,2013-05-07 19:42:00,
2013-05-07 12:52:00,58.0,-99.9,30.06,SE,127,3.0,6.0,-999,-99.99,,,-99.99,,2013-05-07 19:52:00,
2013-05-07 13:02:00,58.0,-99.9,30.06,South,180,4.0,5.0,-999,-99.99,,,-99.99,,2013-05-07 20:02:00,
2013-05-07 13:12:00,59.0,-99.9,30.06,South,175,4.0,6.0,-999,-99.99,,,-99.99,,2013-05-07 20:12:00,
2013-05-07 13:22:00,58.0,-99.9,30.06,SE,133,3.0,7.0,-999,-99.99,,,-99.99,,2013-05-07 20:22:00,
2013-05-07 13:32:00,58.0,-99.9,30.06,South,181,2.0,6.0,-999,-99.99,,,-99.99,,2013-05-07 20:32:00,
2013-05-07 13:42:00,59.0,-99.9,30.06,SSE,152,2.0,7.0,-999,-99.99,,,-99.99,,2013-05-07 20:42:00,
2013-05-07 13:52:00,59.0,-99.9,30.06,East,82,1.0,6.0,-999,-99.99,,,-99.99,,2013-05-07 20:52:00,
2013-05-07 14:02:00,59.0,-99.9,30.06,SSE,148,4.0,9.0,-999,-99.99,,,-99.99,,2013-05-07 21:02:00,
2013-05-07 14:11:00,59.0,-99.9,30.06,SE,134,1.0,5.0,-999,-99.99,,,-99.99,,2013-05-07 21:11:00,
2013-05-07 14:22:00,59.0,-99.9,30.06,SSE,161,2.0,6.0,-999,-99.99,,,-99.99,,2013-05-07 21:22:00,
2013-05-07 14:33:00,58.0,-99.9,30.06,West,273,2.0,7.0,-999,-99.99,,,-99.99,,2013-05-07 21:33:00,
2013-05-07 14:43:00,58.0,-99.9,30.06,SSW,212,4.0,6.0,-999,-99.99,,,-99.99,,2013-05-07 21:43:00,
2013-05-07 14:53:00,58.0,-99.9,30.06,South,179,4.0,6.0,-999,-99.99,,,-99.99,,2013-05-07 21:53:00,
2013-05-07 15:02:00,58.0,-99.9,30.06,SSW,213,3.0,7.0,-999,-99.99,,,-99.99,,2013-05-07 22:02:00,
2013-05-07 15:13:00,58.0,-99.9,30.06,SSW,209,5.0,7.0,-999,-99.99,,,-99.99,,2013-05-07 22:13:00,
2013-05-07 15:22:00,58.0,-99.9,30.05,South,176,4.0,8.0,-999,-99.99,,,-99.99,,2013-05-07 22:22:00,
2013-05-07 15:33:00,57.0,-99.9,30.05,SSW,206,7.0,8.0,-999,-99.99,,,-99.99,,2013-05-07 22:33:00,
2013-05-07 15:42:00,57.0,-99.9,30.05,South,185,6.0,9.0,-999,-99.99,,,-99.99,,2013-05-07 22:42:00,
2013-05-07 15:52:00,57.0,-99.9,30.04,SSW,196,6.0,9.0,-999,-99.99,,,-99.99,,2013-05-07 22:52:00,
2013-05-07 16:02:00,57.0,-99.9,30.04,SSW,195,6.0,10.0,-999,-99.99,,,-99.99,,2013-05-07 23:02:00,
2013-05-07 16:12:00,57.0,-99.9,30.04,SSW,202,4.0,8.0,-999,-99.99,,,-99.99,,2013-05-07 23:12:00,
2013-05-07 16:22:00,58.0,-99.9,30.04,SW,220,3.0,9.0,-999,-99.99,,,-99.99,,2013-05-07 23:22:00,
2013-05-07 16:32:00,57.0,-99.9,30.04,West,276,6.0,9.0,-999,-99.99,,,-99.99,,2013-05-07 23:32:00,
2013-05-07 16:42:00,57.0,-99.9,30.04,WSW,250,3.0,8.0,-999,-99.99,,,-99.99,,2013-05-07 23:42:00,
2013-05-07 16:52:00,57.0,-99.9,30.04,WSW,255,4.0,6.0,-999,-99.99,,,-99.99,,2013-05-07 23:52:00,
2013-05-07 17:02:00,57.0,-99.9,30.04,NW,306,3.0,8.0,-999,-99.99,,,-99.99,,2013-05-08 00:02:00,
2013-05-07 17:12:00,56.0,-99.9,30.04,WNW,296,8.0,9.0,-999,-99.99,,,-99.99,,2013-05-08 00:12:00,
2013-05-07 17:22:00,55.0,-99.9,30.04,WNW,298,10.0,12.0,-999,-99.99,,,-99.99,,2013-05-08 00:22:00,
2013-05-07 17:32:00,56.0,-99.9,30.04,WNW,287,10.0,12.0,-999,-99.99,,,-99.99,,2013-05-08 00:32:00,
2013-05-07 17:42:00,55.0,-99.9,30.04,WNW,295,10.0,13.0,-999,-99.99,,,-99.99,,2013-05-08 00:42:00,
2013-05-07 17:52:00,55.0,-99.9,30.04,WNW,282,9.0,11.0,-999,-99.99,,,-99.99,,2013-05-08 00:52:00,
2013-05-07 18:02:00,55.0,-99.9,30.04,WNW,292,9.0,11.0,-999,-99.99,,,-99.99,,2013-05-08 01:02:00,
2013-05-07 18:12:00,55.0,-99.9,30.04,WNW,292,9.0,11.0,-999,-99.99,,,-99.99,,2013-05-08 01:12:00,
2013-05-07 18:22:00,55.0,-99.9,30.04,WNW,288,8.0,11.0,-999,-99.99,,,-99.99,,2013-05-08 01:22:00,
2013-05-07 18:32:00,54.0,-99.9,30.04,NW,310,10.0,12.0,-999,-99.99,,,-99.99,,2013-05-08 01:32:00,
2013-05-07 18:42:00,54.0,-99.9,30.04,WNW,298,10.0,13.0,-999,-99.99,,,-99.99,,2013-05-08 01:42:00,
2013-05-07 18:52:00,54.0,-99.9,30.04,NW,310,7.0,10.0,-999,-99.99,,,-99.99,,2013-05-08 01:52:00,
2013-05-07 19:02:00,54.0,-99.9,30.04,NW,309,10.0,13.0,-999,-99.99,,,-99.99,,2013-05-08 02:02:00,
2013-05-07 19:12:00,54.0,-99.9,30.04,NW,312,11.0,13.0,-999,-99.99,,,-99.99,,2013-05-08 02:12:00,
2013-05-07 19:22:00,55.0,-99.9,30.04,NW,311,9.0,13.0,-999,-99.99,,,-99.99,,2013-05-08 02:22:00,
2013-05-07 19:32:00,55.0,-99.9,30.04,NW,319,10.0,13.0,-999,-99.99,,,-99.99,,2013-05-08 02:32:00,
2013-05-07 19:42:00,54.0,-99.9,30.04,WNW,298,10.0,12.0,-999,-99.99,,,-99.99,,2013-05-08 02:42:00,
2013-05-07 19:52:00,54.0,-99.9,30.05,WNW,302,9.0,12.0,-999,-99.99,,,-99.99,,2013-05-08 02:52:00,
2013-05-07 20:02:00,55.0,-99.9,30.05,NW,309,10.0,13.0,-999,-99.99,,,-99.99,,2013-05-08 03:02:00,
2013-05-07 20:11:00,55.0,-99.9,30.05,NW,316,9.0,11.0,-999,-99.99,,,-99.99,,2013-05-08 03:11:00,
2013-05-07 20:22:00,55.0,-99.9,30.05,NW,321,9.0,11.0,-999,-99.99,,,-99.99,,2013-05-08 03:22:00,
2013-05-07 20:33:00,54.0,-99.9,30.05,NW,320,9.0,11.0,-999,-99.99,,,-99.99,,2013-05-08 03:33:00,
2013-05-07 20:43:00,54.0,-99.9,30.06,NW,313,9.0,11.0,-999,-99.99,,,-99.99,,2013-05-08 03:43:00,
2013-05-07 20:52:00,55.0,-99.9,30.06,NNW,329,8.0,10.0,-999,-99.99,,,-99.99,,2013-05-08 03:52:00,
2013-05-07 21:02:00,55.0,-99.9,30.06,NNW,328,8.0,10.0,-999,-99.99,,,-99.99,,2013-05-08 04:02:00,
2013-05-07 21:13:00,55.0,-99.9,30.06,NNW,331,9.0,11.0,-999,-99.99,,,-99.99,,2013-05-08 04:13:00,
2013-05-07 21:23:00,55.0,-99.9,30.05,NNW,330,8.0,11.0,-999,-99.99,,,-99.99,,2013-05-08 04:23:00,
2013-05-07 21:33:00,54.0,-99.9,30.06,NNW,333,10.0,12.0,-999,-99.99,,,-99.99,,2013-05-08 04:33:00,
2013-05-07 21:43:00,54.0,-99.9,30.06,NW,316,12.0,14.0,-999,-99.99,,,-99.99,,2013-05-08 04:43:00,
2013-05-07 21:53:00,54.0,-99.9,30.06,NW,323,9.0,14.0,-999,-99.99,,,-99.99,,2013-05-08 04:53:00,
2013-05-07 22:02:00,54.0,-99.9,30.07,NNW,328,10.0,12.0,-999,-99.99,,,-99.99,,2013-05-08 05:02:00,
2013-05-07 22:12:00,54.0,-99.9,30.07,NW,309,8.0,12.0,-999,-99.99,,,-99.99,,2013-05-08 05:12:00,
2013-05-07 22:22:00,54.0,-99.9,30.07,NW,325,8.0,10.0,-999,-99.99,,,-99.99,,2013-05-08 05:22:00,
2013-05-07 22:32:00,54.0,-99.9,30.07,NW,319,7.0,10.0,-999,-99.99,,,-99.99,,2013-05-08 05:32:00,
2013-05-07 22:42:00,53.0,-99.9,30.08,West,280,7.0,9.0,-999,-99.99,,,-99.99,,2013-05-08 05:42:00,
2013-05-07 22:52:00,53.0,-99.9,30.08,WNW,290,7.0,9.0,-999,-99.99,,,-99.99,,2013-05-08 05:52:00,
2013-05-07 23:02:00,53.0,-99.9,30.07,NW,311,5.0,10.0,-999,-99.99,,,-99.99,,2013-05-08 06:02:00,
2013-05-07 23:12:00,53.0,-99.9,30.07,NW,305,5.0,8.0,-999,-99.99,,,-99.99,,2013-05-08 06:12:00,
2013-05-07 23:22:00,53.0,-99.9,30.07,WNW,301,5.0,7.0,-999,-99.99,,,-99.99,,2013-05-08 06:22:00,
2013-05-07 23:32:00,53.0,-99.9,30.07,WNW,285,6.0,9.0,-999,-99.99,,,-99.99,,2013-05-08 06:32:00,
2013-05-07 23:42:00,53.0,-99.9,30.08,WNW,293,6.0,8.0,-999,-99.99,,,-99.99,,2013-05-08 06:42:00,
2013-05-07 23:52:00,53.0,-99.9,30.08,West,276,4.0,10.0,-999,-99.99,,,-99.99,,2013-05-08 06:52:00,